sensor_id;sensor_type;location;lat;lon;timestamp;P1;durP1;ratioP1;P2;durP2;ratioP2
60292;SDS011;52402;52.670;6.750;2023-09-12T00:00:16;0.40;;;0.40;;
60292;SDS011;52402;52.670;6.750;2023-09-12T00:02:42;0.30;;;0.30;;
60292;SDS011;52402;52.670;6.750;2023-09-12T00:05:07;0.40;;;0.40;;
60292;SDS011;52402;52.670;6.750;2023-09-12T00:07:34;0.30;;;0.30;;
60292;SDS011;52402;52.670;6.750;2023-09-12T00:10:00;0.40;;;0.40;;
60292;SDS011;52402;52.670;6.750;2023-09-12T00:12:27;0.40;;;0.40;;
60292;SDS011;52402;52.670;6.750;2023-09-12T00:14:52;0.30;;;0.30;;
60292;SDS011;52402;52.670;6.750;2023-09-12T00:17:18;0.40;;;0.40;;
60292;SDS011;52402;52.670;6.750;2023-09-12T00:19:44;0.30;;;0.30;;
60292;SDS011;52402;52.670;6.750;2023-09-12T00:22:10;0.30;;;0.30;;
60292;SDS011;52402;52.670;6.750;2023-09-12T00:24:36;0.30;;;0.30;;
60292;SDS011;52402;52.670;6.750;2023-09-12T00:27:03;0.30;;;0.30;;
60292;SDS011;52402;52.670;6.750;2023-09-12T00:29:30;0.40;;;0.40;;
60292;SDS011;52402;52.670;6.750;2023-09-12T00:31:57;0.40;;;0.40;;
60292;SDS011;52402;52.670;6.750;2023-09-12T00:34:23;0.38;;;0.38;;
60292;SDS011;52402;52.670;6.750;2023-09-12T00:36:48;0.30;;;0.30;;
60292;SDS011;52402;52.670;6.750;2023-09-12T00:39:14;0.30;;;0.30;;
60292;SDS011;52402;52.670;6.750;2023-09-12T00:41:40;0.40;;;0.40;;
60292;SDS011;52402;52.670;6.750;2023-09-12T00:44:06;0.30;;;0.30;;
60292;SDS011;52402;52.670;6.750;2023-09-12T00:49:07;0.40;;;0.40;;
60292;SDS011;52402;52.670;6.750;2023-09-12T00:51:34;0.30;;;0.30;;
60292;SDS011;52402;52.670;6.750;2023-09-12T00:54:01;0.30;;;0.30;;
60292;SDS011;52402;52.670;6.750;2023-09-12T00:56:26;0.30;;;0.30;;
60292;SDS011;52402;52.670;6.750;2023-09-12T00:58:52;0.40;;;0.40;;
60292;SDS011;52402;52.670;6.750;2023-09-12T01:01:19;0.40;;;0.40;;
60292;SDS011;52402;52.670;6.750;2023-09-12T01:03:46;0.40;;;0.40;;
60292;SDS011;52402;52.670;6.750;2023-09-12T01:06:14;0.30;;;0.30;;
60292;SDS011;52402;52.670;6.750;2023-09-12T01:08:41;0.40;;;0.40;;
60292;SDS011;52402;52.670;6.750;2023-09-12T01:11:07;0.30;;;0.30;;
60292;SDS011;52402;52.670;6.750;2023-09-12T01:13:33;0.38;;;0.38;;
60292;SDS011;52402;52.670;6.750;2023-09-12T01:15:59;0.30;;;0.30;;
60292;SDS011;52402;52.670;6.750;2023-09-12T01:18:25;0.30;;;0.30;;
60292;SDS011;52402;52.670;6.750;2023-09-12T01:23:56;0.30;;;0.30;;
60292;SDS011;52402;52.670;6.750;2023-09-12T01:29:04;0.30;;;0.30;;
60292;SDS011;52402;52.670;6.750;2023-09-12T01:31:32;0.30;;;0.30;;
60292;SDS011;52402;52.670;6.750;2023-09-12T01:34:11;0.40;;;0.40;;
60292;SDS011;52402;52.670;6.750;2023-09-12T01:36:38;0.40;;;0.40;;
60292;SDS011;52402;52.670;6.750;2023-09-12T01:39:03;0.30;;;0.30;;
60292;SDS011;52402;52.670;6.750;2023-09-12T01:41:30;0.30;;;0.30;;
60292;SDS011;52402;52.670;6.750;2023-09-12T01:43:59;0.32;;;0.32;;
60292;SDS011;52402;52.670;6.750;2023-09-12T01:46:27;0.30;;;0.30;;
60292;SDS011;52402;52.670;6.750;2023-09-12T01:48:53;0.30;;;0.30;;
60292;SDS011;52402;52.670;6.750;2023-09-12T01:51:20;0.30;;;0.30;;
60292;SDS011;52402;52.670;6.750;2023-09-12T01:53:48;0.30;;;0.30;;
60292;SDS011;52402;52.670;6.750;2023-09-12T01:56:20;0.30;;;0.30;;
60292;SDS011;52402;52.670;6.750;2023-09-12T01:58:47;0.30;;;0.30;;
60292;SDS011;52402;52.670;6.750;2023-09-12T02:01:12;0.40;;;0.40;;
60292;SDS011;52402;52.670;6.750;2023-09-12T02:03:39;0.30;;;0.30;;
60292;SDS011;52402;52.670;6.750;2023-09-12T02:06:04;0.40;;;0.40;;
60292;SDS011;52402;52.670;6.750;2023-09-12T02:08:30;0.30;;;0.30;;
60292;SDS011;52402;52.670;6.750;2023-09-12T02:10:56;0.35;;;0.35;;
60292;SDS011;52402;52.670;6.750;2023-09-12T02:13:21;0.30;;;0.30;;
60292;SDS011;52402;52.670;6.750;2023-09-12T02:15:47;0.40;;;0.40;;
60292;SDS011;52402;52.670;6.750;2023-09-12T02:18:12;0.30;;;0.30;;
60292;SDS011;52402;52.670;6.750;2023-09-12T02:20:39;0.30;;;0.30;;
60292;SDS011;52402;52.670;6.750;2023-09-12T02:23:05;0.40;;;0.40;;
60292;SDS011;52402;52.670;6.750;2023-09-12T02:25:31;0.40;;;0.40;;
60292;SDS011;52402;52.670;6.750;2023-09-12T02:27:57;0.38;;;0.38;;
60292;SDS011;52402;52.670;6.750;2023-09-12T02:30:22;0.30;;;0.30;;
60292;SDS011;52402;52.670;6.750;2023-09-12T02:32:48;0.30;;;0.30;;
60292;SDS011;52402;52.670;6.750;2023-09-12T02:35:14;0.30;;;0.30;;
60292;SDS011;52402;52.670;6.750;2023-09-12T02:37:39;0.30;;;0.30;;
60292;SDS011;52402;52.670;6.750;2023-09-12T02:40:05;0.30;;;0.30;;
60292;SDS011;52402;52.670;6.750;2023-09-12T02:42:32;0.30;;;0.30;;
60292;SDS011;52402;52.670;6.750;2023-09-12T02:44:57;0.30;;;0.30;;
60292;SDS011;52402;52.670;6.750;2023-09-12T02:47:23;0.30;;;0.30;;
60292;SDS011;52402;52.670;6.750;2023-09-12T02:49:49;0.30;;;0.30;;
60292;SDS011;52402;52.670;6.750;2023-09-12T02:52:14;0.30;;;0.30;;
60292;SDS011;52402;52.670;6.750;2023-09-12T02:54:40;0.40;;;0.40;;
60292;SDS011;52402;52.670;6.750;2023-09-12T02:57:05;0.40;;;0.40;;
60292;SDS011;52402;52.670;6.750;2023-09-12T02:59:31;0.32;;;0.32;;
60292;SDS011;52402;52.670;6.750;2023-09-12T03:01:57;0.30;;;0.30;;
60292;SDS011;52402;52.670;6.750;2023-09-12T03:04:24;0.40;;;0.40;;
60292;SDS011;52402;52.670;6.750;2023-09-12T03:06:52;0.40;;;0.40;;
60292;SDS011;52402;52.670;6.750;2023-09-12T03:09:18;0.30;;;0.30;;
60292;SDS011;52402;52.670;6.750;2023-09-12T03:11:44;0.30;;;0.30;;
60292;SDS011;52402;52.670;6.750;2023-09-12T03:14:10;0.38;;;0.38;;
60292;SDS011;52402;52.670;6.750;2023-09-12T03:16:35;0.32;;;0.32;;
60292;SDS011;52402;52.670;6.750;2023-09-12T03:19:02;0.38;;;0.38;;
60292;SDS011;52402;52.670;6.750;2023-09-12T03:21:28;0.40;;;0.40;;
60292;SDS011;52402;52.670;6.750;2023-09-12T03:23:55;0.40;;;0.40;;
60292;SDS011;52402;52.670;6.750;2023-09-12T03:26:21;0.30;;;0.30;;
60292;SDS011;52402;52.670;6.750;2023-09-12T03:28:48;0.35;;;0.35;;
60292;SDS011;52402;52.670;6.750;2023-09-12T03:31:15;0.30;;;0.30;;
60292;SDS011;52402;52.670;6.750;2023-09-12T03:33:41;0.40;;;0.40;;
60292;SDS011;52402;52.670;6.750;2023-09-12T03:36:08;0.40;;;0.40;;
60292;SDS011;52402;52.670;6.750;2023-09-12T03:38:35;0.30;;;0.30;;
60292;SDS011;52402;52.670;6.750;2023-09-12T03:41:01;0.30;;;0.30;;
60292;SDS011;52402;52.670;6.750;2023-09-12T03:43:27;0.40;;;0.40;;
60292;SDS011;52402;52.670;6.750;2023-09-12T03:45:53;0.40;;;0.40;;
60292;SDS011;52402;52.670;6.750;2023-09-12T03:48:19;0.32;;;0.32;;
60292;SDS011;52402;52.670;6.750;2023-09-12T03:50:44;0.40;;;0.40;;
60292;SDS011;52402;52.670;6.750;2023-09-12T03:53:11;0.30;;;0.30;;
60292;SDS011;52402;52.670;6.750;2023-09-12T03:55:38;0.30;;;0.30;;
60292;SDS011;52402;52.670;6.750;2023-09-12T03:58:04;0.30;;;0.30;;
60292;SDS011;52402;52.670;6.750;2023-09-12T04:00:29;0.30;;;0.30;;
60292;SDS011;52402;52.670;6.750;2023-09-12T04:02:55;0.30;;;0.30;;
60292;SDS011;52402;52.670;6.750;2023-09-12T04:05:21;0.30;;;0.30;;
60292;SDS011;52402;52.670;6.750;2023-09-12T04:07:47;0.30;;;0.30;;
60292;SDS011;52402;52.670;6.750;2023-09-12T04:10:12;0.30;;;0.30;;
60292;SDS011;52402;52.670;6.750;2023-09-12T04:12:38;0.40;;;0.40;;
60292;SDS011;52402;52.670;6.750;2023-09-12T04:15:05;0.43;;;0.43;;
60292;SDS011;52402;52.670;6.750;2023-09-12T04:17:31;0.40;;;0.40;;
60292;SDS011;52402;52.670;6.750;2023-09-12T04:19:56;0.40;;;0.40;;
60292;SDS011;52402;52.670;6.750;2023-09-12T04:22:22;0.30;;;0.30;;
60292;SDS011;52402;52.670;6.750;2023-09-12T04:24:48;0.50;;;0.50;;
60292;SDS011;52402;52.670;6.750;2023-09-12T04:27:13;0.30;;;0.30;;
60292;SDS011;52402;52.670;6.750;2023-09-12T04:29:39;0.40;;;0.40;;
60292;SDS011;52402;52.670;6.750;2023-09-12T04:32:04;0.32;;;0.32;;
60292;SDS011;52402;52.670;6.750;2023-09-12T04:34:30;0.40;;;0.40;;
60292;SDS011;52402;52.670;6.750;2023-09-12T04:36:56;0.40;;;0.40;;
60292;SDS011;52402;52.670;6.750;2023-09-12T04:39:22;0.40;;;0.40;;
60292;SDS011;52402;52.670;6.750;2023-09-12T04:41:47;0.30;;;0.30;;
60292;SDS011;52402;52.670;6.750;2023-09-12T04:44:13;0.40;;;0.40;;
60292;SDS011;52402;52.670;6.750;2023-09-12T04:46:39;0.30;;;0.30;;
60292;SDS011;52402;52.670;6.750;2023-09-12T04:49:05;0.40;;;0.40;;
60292;SDS011;52402;52.670;6.750;2023-09-12T04:51:30;0.30;;;0.30;;
60292;SDS011;52402;52.670;6.750;2023-09-12T04:53:56;0.50;;;0.50;;
60292;SDS011;52402;52.670;6.750;2023-09-12T04:56:22;0.40;;;0.40;;
60292;SDS011;52402;52.670;6.750;2023-09-12T04:58:50;0.40;;;0.40;;
60292;SDS011;52402;52.670;6.750;2023-09-12T05:01:16;0.40;;;0.40;;
60292;SDS011;52402;52.670;6.750;2023-09-12T05:03:42;0.40;;;0.40;;
60292;SDS011;52402;52.670;6.750;2023-09-12T05:06:09;0.30;;;0.30;;
60292;SDS011;52402;52.670;6.750;2023-09-12T05:08:35;0.30;;;0.30;;
60292;SDS011;52402;52.670;6.750;2023-09-12T05:11:01;0.47;;;0.47;;
60292;SDS011;52402;52.670;6.750;2023-09-12T05:13:27;0.30;;;0.30;;
60292;SDS011;52402;52.670;6.750;2023-09-12T05:15:53;0.40;;;0.40;;
60292;SDS011;52402;52.670;6.750;2023-09-12T05:18:18;0.30;;;0.30;;
60292;SDS011;52402;52.670;6.750;2023-09-12T05:20:44;0.40;;;0.40;;
60292;SDS011;52402;52.670;6.750;2023-09-12T05:23:10;0.30;;;0.30;;
60292;SDS011;52402;52.670;6.750;2023-09-12T05:25:41;0.40;;;0.40;;
60292;SDS011;52402;52.670;6.750;2023-09-12T05:28:07;0.40;;;0.40;;
60292;SDS011;52402;52.670;6.750;2023-09-12T05:30:33;0.38;;;0.38;;
60292;SDS011;52402;52.670;6.750;2023-09-12T05:32:58;0.40;;;0.40;;
60292;SDS011;52402;52.670;6.750;2023-09-12T05:35:24;0.40;;;0.40;;
60292;SDS011;52402;52.670;6.750;2023-09-12T05:37:50;0.40;;;0.40;;
60292;SDS011;52402;52.670;6.750;2023-09-12T05:40:17;0.40;;;0.40;;
60292;SDS011;52402;52.670;6.750;2023-09-12T05:42:43;0.50;;;0.50;;
60292;SDS011;52402;52.670;6.750;2023-09-12T05:45:09;0.40;;;0.40;;
60292;SDS011;52402;52.670;6.750;2023-09-12T05:47:34;0.40;;;0.40;;
60292;SDS011;52402;52.670;6.750;2023-09-12T05:50:00;0.40;;;0.40;;
60292;SDS011;52402;52.670;6.750;2023-09-12T05:52:29;0.40;;;0.40;;
60292;SDS011;52402;52.670;6.750;2023-09-12T05:54:55;0.43;;;0.43;;
60292;SDS011;52402;52.670;6.750;2023-09-12T05:57:21;0.35;;;0.35;;
60292;SDS011;52402;52.670;6.750;2023-09-12T05:59:47;0.32;;;0.32;;
60292;SDS011;52402;52.670;6.750;2023-09-12T06:02:12;0.40;;;0.40;;
60292;SDS011;52402;52.670;6.750;2023-09-12T06:04:38;0.40;;;0.40;;
60292;SDS011;52402;52.670;6.750;2023-09-12T06:07:04;0.40;;;0.40;;
60292;SDS011;52402;52.670;6.750;2023-09-12T06:09:30;0.40;;;0.40;;
60292;SDS011;52402;52.670;6.750;2023-09-12T06:11:55;0.30;;;0.30;;
60292;SDS011;52402;52.670;6.750;2023-09-12T06:14:21;0.30;;;0.30;;
60292;SDS011;52402;52.670;6.750;2023-09-12T06:16:47;0.40;;;0.40;;
60292;SDS011;52402;52.670;6.750;2023-09-12T06:19:13;0.40;;;0.40;;
60292;SDS011;52402;52.670;6.750;2023-09-12T06:21:39;0.40;;;0.40;;
60292;SDS011;52402;52.670;6.750;2023-09-12T06:24:10;0.35;;;0.35;;
60292;SDS011;52402;52.670;6.750;2023-09-12T06:26:37;0.40;;;0.40;;
60292;SDS011;52402;52.670;6.750;2023-09-12T06:29:04;0.40;;;0.40;;
60292;SDS011;52402;52.670;6.750;2023-09-12T06:31:32;0.30;;;0.30;;
60292;SDS011;52402;52.670;6.750;2023-09-12T06:33:59;0.40;;;0.40;;
60292;SDS011;52402;52.670;6.750;2023-09-12T06:36:25;0.40;;;0.40;;
60292;SDS011;52402;52.670;6.750;2023-09-12T06:38:51;0.40;;;0.40;;
60292;SDS011;52402;52.670;6.750;2023-09-12T06:41:20;0.40;;;0.40;;
60292;SDS011;52402;52.670;6.750;2023-09-12T06:43:45;0.40;;;0.40;;
60292;SDS011;52402;52.670;6.750;2023-09-12T06:46:11;0.40;;;0.40;;
60292;SDS011;52402;52.670;6.750;2023-09-12T06:48:37;0.40;;;0.40;;
60292;SDS011;52402;52.670;6.750;2023-09-12T06:51:04;0.30;;;0.30;;
60292;SDS011;52402;52.670;6.750;2023-09-12T06:53:31;0.30;;;0.30;;
60292;SDS011;52402;52.670;6.750;2023-09-12T06:55:56;0.45;;;0.45;;
60292;SDS011;52402;52.670;6.750;2023-09-12T06:58:24;0.50;;;0.50;;
60292;SDS011;52402;52.670;6.750;2023-09-12T07:00:49;0.40;;;0.40;;
60292;SDS011;52402;52.670;6.750;2023-09-12T07:03:15;0.50;;;0.50;;
60292;SDS011;52402;52.670;6.750;2023-09-12T07:05:41;0.40;;;0.40;;
60292;SDS011;52402;52.670;6.750;2023-09-12T07:08:07;0.40;;;0.40;;
60292;SDS011;52402;52.670;6.750;2023-09-12T07:10:33;0.38;;;0.38;;
60292;SDS011;52402;52.670;6.750;2023-09-12T07:12:59;0.50;;;0.50;;
60292;SDS011;52402;52.670;6.750;2023-09-12T07:15:25;0.50;;;0.50;;
60292;SDS011;52402;52.670;6.750;2023-09-12T07:17:50;0.40;;;0.40;;
60292;SDS011;52402;52.670;6.750;2023-09-12T07:20:16;0.40;;;0.40;;
60292;SDS011;52402;52.670;6.750;2023-09-12T07:22:43;0.40;;;0.40;;
60292;SDS011;52402;52.670;6.750;2023-09-12T07:25:09;0.40;;;0.40;;
60292;SDS011;52402;52.670;6.750;2023-09-12T07:27:36;0.40;;;0.40;;
60292;SDS011;52402;52.670;6.750;2023-09-12T07:30:03;0.40;;;0.40;;
60292;SDS011;52402;52.670;6.750;2023-09-12T07:32:29;0.40;;;0.40;;
60292;SDS011;52402;52.670;6.750;2023-09-12T07:34:55;0.40;;;0.40;;
60292;SDS011;52402;52.670;6.750;2023-09-12T07:37:20;0.40;;;0.40;;
60292;SDS011;52402;52.670;6.750;2023-09-12T07:39:46;0.43;;;0.43;;
60292;SDS011;52402;52.670;6.750;2023-09-12T07:42:12;0.40;;;0.40;;
60292;SDS011;52402;52.670;6.750;2023-09-12T07:44:37;0.40;;;0.40;;
60292;SDS011;52402;52.670;6.750;2023-09-12T07:47:03;0.50;;;0.50;;
60292;SDS011;52402;52.670;6.750;2023-09-12T07:49:29;0.40;;;0.40;;
60292;SDS011;52402;52.670;6.750;2023-09-12T07:51:54;0.50;;;0.50;;
60292;SDS011;52402;52.670;6.750;2023-09-12T07:54:22;0.40;;;0.40;;
60292;SDS011;52402;52.670;6.750;2023-09-12T07:56:48;0.30;;;0.30;;
60292;SDS011;52402;52.670;6.750;2023-09-12T07:59:13;0.50;;;0.50;;
60292;SDS011;52402;52.670;6.750;2023-09-12T08:01:39;0.40;;;0.40;;
60292;SDS011;52402;52.670;6.750;2023-09-12T08:04:05;0.47;;;0.47;;
60292;SDS011;52402;52.670;6.750;2023-09-12T08:06:34;0.40;;;0.40;;
60292;SDS011;52402;52.670;6.750;2023-09-12T08:09:00;0.40;;;0.40;;
60292;SDS011;52402;52.670;6.750;2023-09-12T08:11:26;0.40;;;0.40;;
60292;SDS011;52402;52.670;6.750;2023-09-12T08:13:52;0.45;;;0.45;;
60292;SDS011;52402;52.670;6.750;2023-09-12T08:16:17;0.40;;;0.40;;
60292;SDS011;52402;52.670;6.750;2023-09-12T08:18:43;0.45;;;0.45;;
60292;SDS011;52402;52.670;6.750;2023-09-12T08:21:12;0.50;;;0.50;;
60292;SDS011;52402;52.670;6.750;2023-09-12T08:23:37;0.40;;;0.40;;
60292;SDS011;52402;52.670;6.750;2023-09-12T08:26:03;0.40;;;0.40;;
60292;SDS011;52402;52.670;6.750;2023-09-12T08:28:29;0.47;;;0.47;;
60292;SDS011;52402;52.670;6.750;2023-09-12T08:30:54;0.40;;;0.40;;
60292;SDS011;52402;52.670;6.750;2023-09-12T08:33:20;0.40;;;0.40;;
60292;SDS011;52402;52.670;6.750;2023-09-12T08:35:45;0.40;;;0.40;;
60292;SDS011;52402;52.670;6.750;2023-09-12T08:38:11;0.40;;;0.40;;
60292;SDS011;52402;52.670;6.750;2023-09-12T08:40:37;0.40;;;0.40;;
60292;SDS011;52402;52.670;6.750;2023-09-12T08:43:03;0.50;;;0.50;;
60292;SDS011;52402;52.670;6.750;2023-09-12T08:45:29;0.50;;;0.50;;
60292;SDS011;52402;52.670;6.750;2023-09-12T08:47:55;0.40;;;0.40;;
60292;SDS011;52402;52.670;6.750;2023-09-12T08:50:23;0.50;;;0.50;;
60292;SDS011;52402;52.670;6.750;2023-09-12T08:52:50;0.40;;;0.40;;
60292;SDS011;52402;52.670;6.750;2023-09-12T08:55:16;0.40;;;0.40;;
60292;SDS011;52402;52.670;6.750;2023-09-12T08:57:43;0.40;;;0.40;;
60292;SDS011;52402;52.670;6.750;2023-09-12T09:00:11;0.50;;;0.50;;
60292;SDS011;52402;52.670;6.750;2023-09-12T09:02:38;0.50;;;0.50;;
60292;SDS011;52402;52.670;6.750;2023-09-12T09:05:08;0.50;;;0.50;;
60292;SDS011;52402;52.670;6.750;2023-09-12T09:10:02;0.50;;;0.50;;
60292;SDS011;52402;52.670;6.750;2023-09-12T09:12:30;0.45;;;0.45;;
60292;SDS011;52402;52.670;6.750;2023-09-12T09:14:56;0.57;;;0.57;;
60292;SDS011;52402;52.670;6.750;2023-09-12T09:17:22;0.45;;;0.45;;
60292;SDS011;52402;52.670;6.750;2023-09-12T09:19:48;0.50;;;0.50;;
60292;SDS011;52402;52.670;6.750;2023-09-12T09:22:14;0.50;;;0.50;;
60292;SDS011;52402;52.670;6.750;2023-09-12T09:24:40;0.50;;;0.50;;
60292;SDS011;52402;52.670;6.750;2023-09-12T09:27:06;0.50;;;0.50;;
60292;SDS011;52402;52.670;6.750;2023-09-12T09:29:32;0.50;;;0.50;;
60292;SDS011;52402;52.670;6.750;2023-09-12T09:32:16;0.50;;;0.50;;
60292;SDS011;52402;52.670;6.750;2023-09-12T09:34:43;0.50;;;0.50;;
60292;SDS011;52402;52.670;6.750;2023-09-12T09:37:08;0.50;;;0.50;;
60292;SDS011;52402;52.670;6.750;2023-09-12T09:39:34;0.50;;;0.50;;
60292;SDS011;52402;52.670;6.750;2023-09-12T09:42:00;0.50;;;0.50;;
60292;SDS011;52402;52.670;6.750;2023-09-12T09:44:26;0.50;;;0.50;;
60292;SDS011;52402;52.670;6.750;2023-09-12T09:46:54;0.70;;;0.70;;
60292;SDS011;52402;52.670;6.750;2023-09-12T09:49:25;0.60;;;0.60;;
60292;SDS011;52402;52.670;6.750;2023-09-12T09:51:51;0.60;;;0.60;;
60292;SDS011;52402;52.670;6.750;2023-09-12T09:54:20;0.70;;;0.70;;
60292;SDS011;52402;52.670;6.750;2023-09-12T09:56:50;0.70;;;0.70;;
60292;SDS011;52402;52.670;6.750;2023-09-12T09:59:20;0.70;;;0.70;;
60292;SDS011;52402;52.670;6.750;2023-09-12T10:01:48;0.63;;;0.63;;
60292;SDS011;52402;52.670;6.750;2023-09-12T10:04:15;0.50;;;0.50;;
60292;SDS011;52402;52.670;6.750;2023-09-12T10:06:43;0.50;;;0.50;;
60292;SDS011;52402;52.670;6.750;2023-09-12T10:09:10;0.70;;;0.70;;
60292;SDS011;52402;52.670;6.750;2023-09-12T10:11:39;0.60;;;0.60;;
60292;SDS011;52402;52.670;6.750;2023-09-12T10:14:07;0.60;;;0.60;;
60292;SDS011;52402;52.670;6.750;2023-09-12T10:16:34;0.70;;;0.70;;
60292;SDS011;52402;52.670;6.750;2023-09-12T10:19:11;0.70;;;0.70;;
60292;SDS011;52402;52.670;6.750;2023-09-12T10:22:25;0.70;;;0.70;;
60292;SDS011;52402;52.670;6.750;2023-09-12T10:24:46;0.70;;;0.70;;
60292;SDS011;52402;52.670;6.750;2023-09-12T10:27:13;0.70;;;0.70;;
60292;SDS011;52402;52.670;6.750;2023-09-12T10:29:40;0.90;;;0.90;;
60292;SDS011;52402;52.670;6.750;2023-09-12T10:32:05;0.70;;;0.70;;
60292;SDS011;52402;52.670;6.750;2023-09-12T10:34:31;0.70;;;0.70;;
60292;SDS011;52402;52.670;6.750;2023-09-12T10:36:58;0.90;;;0.90;;
60292;SDS011;52402;52.670;6.750;2023-09-12T10:39:31;0.82;;;0.82;;
60292;SDS011;52402;52.670;6.750;2023-09-12T10:41:58;0.80;;;0.80;;
60292;SDS011;52402;52.670;6.750;2023-09-12T10:44:30;0.80;;;0.80;;
60292;SDS011;52402;52.670;6.750;2023-09-12T10:46:57;1.00;;;1.00;;
60292;SDS011;52402;52.670;6.750;2023-09-12T10:49:23;1.05;;;1.05;;
60292;SDS011;52402;52.670;6.750;2023-09-12T10:51:49;0.95;;;0.95;;
60292;SDS011;52402;52.670;6.750;2023-09-12T10:54:23;1.02;;;1.02;;
60292;SDS011;52402;52.670;6.750;2023-09-12T10:57:03;1.10;;;1.10;;
60292;SDS011;52402;52.670;6.750;2023-09-12T10:59:29;1.50;;;1.40;;
60292;SDS011;52402;52.670;6.750;2023-09-12T11:04:56;1.17;;;1.17;;
60292;SDS011;52402;52.670;6.750;2023-09-12T11:07:33;1.05;;;1.05;;
60292;SDS011;52402;52.670;6.750;2023-09-12T11:12:41;1.10;;;1.10;;
60292;SDS011;52402;52.670;6.750;2023-09-12T11:15:08;1.08;;;1.08;;
60292;SDS011;52402;52.670;6.750;2023-09-12T11:17:42;1.00;;;1.00;;
60292;SDS011;52402;52.670;6.750;2023-09-12T11:20:11;1.40;;;1.30;;
60292;SDS011;52402;52.670;6.750;2023-09-12T11:22:39;1.17;;;1.17;;
60292;SDS011;52402;52.670;6.750;2023-09-12T11:25:18;1.52;;;1.42;;
60292;SDS011;52402;52.670;6.750;2023-09-12T11:30:18;1.50;;;1.40;;
60292;SDS011;52402;52.670;6.750;2023-09-12T11:32:48;1.58;;;1.48;;
60292;SDS011;52402;52.670;6.750;2023-09-12T11:35:16;1.42;;;1.33;;
60292;SDS011;52402;52.670;6.750;2023-09-12T11:37:50;1.13;;;1.13;;
60292;SDS011;52402;52.670;6.750;2023-09-12T11:40:22;1.60;;;1.50;;
60292;SDS011;52402;52.670;6.750;2023-09-12T11:43:08;1.77;;;1.67;;
60292;SDS011;52402;52.670;6.750;2023-09-12T11:45:44;1.75;;;1.65;;
60292;SDS011;52402;52.670;6.750;2023-09-12T11:48:11;1.52;;;1.42;;
60292;SDS011;52402;52.670;6.750;2023-09-12T11:50:37;1.90;;;1.80;;
60292;SDS011;52402;52.670;6.750;2023-09-12T11:53:08;2.08;;;1.98;;
60292;SDS011;52402;52.670;6.750;2023-09-12T11:55:42;1.80;;;1.70;;
60292;SDS011;52402;52.670;6.750;2023-09-12T11:58:13;1.67;;;1.58;;
60292;SDS011;52402;52.670;6.750;2023-09-12T12:00:50;1.95;;;1.85;;
60292;SDS011;52402;52.670;6.750;2023-09-12T12:03:17;1.70;;;1.60;;
60292;SDS011;52402;52.670;6.750;2023-09-12T12:05:47;2.08;;;1.98;;
60292;SDS011;52402;52.670;6.750;2023-09-12T12:08:13;1.90;;;1.80;;
60292;SDS011;52402;52.670;6.750;2023-09-12T12:10:41;2.50;;;2.33;;
60292;SDS011;52402;52.670;6.750;2023-09-12T12:13:10;2.63;;;2.42;;
60292;SDS011;52402;52.670;6.750;2023-09-12T12:15:37;2.70;;;2.50;;
60292;SDS011;52402;52.670;6.750;2023-09-12T12:18:03;2.88;;;2.67;;
60292;SDS011;52402;52.670;6.750;2023-09-12T12:20:29;2.83;;;2.63;;
60292;SDS011;52402;52.670;6.750;2023-09-12T12:22:55;2.95;;;2.75;;
60292;SDS011;52402;52.670;6.750;2023-09-12T12:25:21;3.00;;;2.80;;
60292;SDS011;52402;52.670;6.750;2023-09-12T12:27:47;3.10;;;2.90;;
60292;SDS011;52402;52.670;6.750;2023-09-12T12:30:14;3.47;;;3.28;;
60292;SDS011;52402;52.670;6.750;2023-09-12T12:32:40;3.88;;;3.58;;
60292;SDS011;52402;52.670;6.750;2023-09-12T12:35:07;3.45;;;3.25;;
60292;SDS011;52402;52.670;6.750;2023-09-12T12:37:33;3.95;;;3.65;;
60292;SDS011;52402;52.670;6.750;2023-09-12T12:40:01;3.97;;;3.67;;
60292;SDS011;52402;52.670;6.750;2023-09-12T12:42:35;4.32;;;4.03;;
60292;SDS011;52402;52.670;6.750;2023-09-12T12:45:10;4.13;;;3.83;;
60292;SDS011;52402;52.670;6.750;2023-09-12T12:47:39;4.68;;;4.38;;
60292;SDS011;52402;52.670;6.750;2023-09-12T12:50:07;4.45;;;4.15;;
60292;SDS011;52402;52.670;6.750;2023-09-12T12:52:35;4.22;;;3.92;;
60292;SDS011;52402;52.670;6.750;2023-09-12T12:55:09;3.67;;;3.40;;
60292;SDS011;52402;52.670;6.750;2023-09-12T12:57:37;4.10;;;3.80;;
60292;SDS011;52402;52.670;6.750;2023-09-12T13:00:09;5.35;;;4.95;;
60292;SDS011;52402;52.670;6.750;2023-09-12T13:02:37;5.85;;;5.45;;
60292;SDS011;52402;52.670;6.750;2023-09-12T13:05:03;5.70;;;5.30;;
60292;SDS011;52402;52.670;6.750;2023-09-12T13:07:33;5.90;;;5.50;;
60292;SDS011;52402;52.670;6.750;2023-09-12T13:10:01;6.50;;;6.10;;
60292;SDS011;52402;52.670;6.750;2023-09-12T13:12:29;6.72;;;6.32;;
60292;SDS011;52402;52.670;6.750;2023-09-12T13:14:55;7.63;;;7.13;;
60292;SDS011;52402;52.670;6.750;2023-09-12T13:17:21;7.45;;;6.95;;
60292;SDS011;52402;52.670;6.750;2023-09-12T13:19:47;7.10;;;6.70;;
60292;SDS011;52402;52.670;6.750;2023-09-12T13:22:12;6.80;;;6.40;;
60292;SDS011;52402;52.670;6.750;2023-09-12T13:24:38;6.40;;;6.00;;
60292;SDS011;52402;52.670;6.750;2023-09-12T13:27:04;7.43;;;7.00;;
60292;SDS011;52402;52.670;6.750;2023-09-12T13:29:30;7.53;;;7.03;;
60292;SDS011;52402;52.670;6.750;2023-09-12T13:31:55;7.03;;;6.63;;
60292;SDS011;52402;52.670;6.750;2023-09-12T13:34:21;8.25;;;7.75;;
60292;SDS011;52402;52.670;6.750;2023-09-12T13:36:47;7.40;;;6.93;;
60292;SDS011;52402;52.670;6.750;2023-09-12T13:39:15;7.60;;;7.10;;
60292;SDS011;52402;52.670;6.750;2023-09-12T13:41:42;6.57;;;6.18;;
60292;SDS011;52402;52.670;6.750;2023-09-12T13:44:08;8.10;;;7.60;;
60292;SDS011;52402;52.670;6.750;2023-09-12T13:46:35;8.35;;;7.85;;
60292;SDS011;52402;52.670;6.750;2023-09-12T13:49:01;8.18;;;7.68;;
60292;SDS011;52402;52.670;6.750;2023-09-12T13:51:28;8.68;;;8.18;;
60292;SDS011;52402;52.670;6.750;2023-09-12T13:53:54;8.32;;;7.82;;
60292;SDS011;52402;52.670;6.750;2023-09-12T13:56:20;8.88;;;8.38;;
60292;SDS011;52402;52.670;6.750;2023-09-12T13:58:45;8.25;;;7.75;;
60292;SDS011;52402;52.670;6.750;2023-09-12T14:01:11;8.65;;;8.15;;
60292;SDS011;52402;52.670;6.750;2023-09-12T14:03:37;8.10;;;7.60;;
60292;SDS011;52402;52.670;6.750;2023-09-12T14:06:03;7.55;;;7.05;;
60292;SDS011;52402;52.670;6.750;2023-09-12T14:08:29;9.52;;;9.02;;
60292;SDS011;52402;52.670;6.750;2023-09-12T14:10:54;8.63;;;8.13;;
60292;SDS011;52402;52.670;6.750;2023-09-12T14:13:20;8.70;;;8.20;;
60292;SDS011;52402;52.670;6.750;2023-09-12T14:15:45;8.63;;;8.13;;
60292;SDS011;52402;52.670;6.750;2023-09-12T14:18:11;8.50;;;8.00;;
60292;SDS011;52402;52.670;6.750;2023-09-12T14:20:37;7.95;;;7.45;;
60292;SDS011;52402;52.670;6.750;2023-09-12T14:23:03;8.55;;;8.05;;
60292;SDS011;52402;52.670;6.750;2023-09-12T14:25:29;8.82;;;8.32;;
60292;SDS011;52402;52.670;6.750;2023-09-12T14:27:54;8.70;;;8.20;;
60292;SDS011;52402;52.670;6.750;2023-09-12T14:30:22;9.25;;;8.75;;
60292;SDS011;52402;52.670;6.750;2023-09-12T14:32:48;8.50;;;8.00;;
60292;SDS011;52402;52.670;6.750;2023-09-12T14:35:14;8.60;;;8.10;;
60292;SDS011;52402;52.670;6.750;2023-09-12T14:37:40;8.80;;;8.30;;
60292;SDS011;52402;52.670;6.750;2023-09-12T14:40:07;9.13;;;8.63;;
60292;SDS011;52402;52.670;6.750;2023-09-12T14:42:33;8.65;;;8.15;;
60292;SDS011;52402;52.670;6.750;2023-09-12T14:44:59;9.13;;;8.63;;
60292;SDS011;52402;52.670;6.750;2023-09-12T14:47:24;7.93;;;7.43;;
60292;SDS011;52402;52.670;6.750;2023-09-12T14:49:52;7.60;;;7.10;;
60292;SDS011;52402;52.670;6.750;2023-09-12T14:52:18;8.45;;;7.95;;
60292;SDS011;52402;52.670;6.750;2023-09-12T14:54:44;8.10;;;7.60;;
60292;SDS011;52402;52.670;6.750;2023-09-12T14:57:10;7.95;;;7.45;;
60292;SDS011;52402;52.670;6.750;2023-09-12T14:59:35;8.25;;;7.75;;
60292;SDS011;52402;52.670;6.750;2023-09-12T15:02:01;7.68;;;7.18;;
60292;SDS011;52402;52.670;6.750;2023-09-12T15:04:26;7.55;;;7.05;;